KFLL/FLL METAR and TAF weather

Enter ICAO airport designator
Station Type Date Time Source
KFLL METAR 2021/09/27 06:53 UTC NOAA

KFLL 270653Z 03004KT 10SM CLR 25/20 A3003 RMK AO2 SLP168 T02500200


Station Type Date Time Source
KFLL Decoded METAR 2021/09/27 06:53 UTC NOAA

FORT LAUDERDALE/HOLLYWOOD, FL, United States (KFLL) 26-04N 080-09W 30M
Sep 27, 2021 - 02:53 AM EDT / 2021.09.27 0653 UTC
Wind: from the NNE (030 degrees) at 5 MPH (4 KT):0
Visibility: 10 mile(s):0
Sky conditions: clear
Temperature: 77.0 F (25.0 C)
Dew Point: 68.0 F (20.0 C)
Relative Humidity: 73%
Pressure (altimeter): 30.03 in. Hg (1016 hPa)
ob: KFLL 270653Z 03004KT 10SM CLR 25/20 A3003 RMK AO2 SLP168 T02500200
cycle: 7

Station Type Date Time Source
KFLL TAF 2021/09/27 06:22 UTC NOAA

TAF KFLL 270520Z 2706/2812 05008KT P6SM FEW035
FM271500 06014KT P6SM SCT035 BKN050
FM280200 07007KT P6SM SCT030

Example: see airport list